createdAt,value
2022-07-30T00:01:30.734Z,2.90
2022-07-30T00:03:34.087Z,3.05
2022-07-30T00:05:35.812Z,3.28
2022-07-30T00:07:37.588Z,3.33
2022-07-30T00:09:39.332Z,3.58
2022-07-30T00:11:41.132Z,3.22
2022-07-30T00:13:42.849Z,3.25
2022-07-30T00:15:44.717Z,3.47
2022-07-30T00:17:47.660Z,3.05
2022-07-30T00:19:50.859Z,3.28
2022-07-30T00:21:55.427Z,3.15
2022-07-30T00:24:02.043Z,3.28
2022-07-30T00:26:03.987Z,3.45
2022-07-30T00:28:05.634Z,3.22
2022-07-30T00:30:07.796Z,3.60
2022-07-30T00:32:09.445Z,3.40
2022-07-30T00:34:13.003Z,3.38
2022-07-30T00:36:14.682Z,3.50
2022-07-30T00:38:16.333Z,3.10
2022-07-30T00:40:18.175Z,3.10
2022-07-30T00:42:25.688Z,3.50
2022-07-30T00:44:28.169Z,2.90
2022-07-30T00:46:29.794Z,3.42
2022-07-30T00:48:31.445Z,3.35
2022-07-30T00:50:33.126Z,4.00
2022-07-30T00:52:36.375Z,3.60
2022-07-30T00:54:38.384Z,3.67
2022-07-30T00:56:40.049Z,3.50
2022-07-30T00:58:41.751Z,3.42
2022-07-30T01:00:43.540Z,3.50
2022-07-30T01:02:45.560Z,3.40
2022-07-30T01:04:47.362Z,3.25
2022-07-30T01:06:49.028Z,3.25
2022-07-30T01:08:50.885Z,3.13
2022-07-30T01:10:52.678Z,3.67
2022-07-30T01:12:54.606Z,3.58
2022-07-30T01:14:58.128Z,3.70
2022-07-30T01:19:22.966Z,3.47
2022-07-30T01:21:33.034Z,3.40
2022-07-30T01:23:43.964Z,3.20
2022-07-30T01:26:02.838Z,3.65
2022-07-30T01:28:07.961Z,2.90
2022-07-30T01:30:11.197Z,3.15
2022-07-30T01:32:13.820Z,3.47
2022-07-30T01:34:17.386Z,3.73
2022-07-30T01:36:21.657Z,3.88
2022-07-30T01:38:24.665Z,3.40
2022-07-30T01:40:27.857Z,3.42
2022-07-30T01:42:29.948Z,3.55
2022-07-30T01:44:32.347Z,4.00
2022-07-30T01:46:34.321Z,3.40
2022-07-30T01:48:56.460Z,3.55
2022-07-30T01:51:01.143Z,3.20
2022-07-30T01:53:03.479Z,3.50
2022-07-30T01:55:17.059Z,3.55
2022-07-30T01:57:20.942Z,4.20
2022-07-30T02:01:24.846Z,4.10
2022-07-30T02:03:27.639Z,3.88
2022-07-30T02:05:31.589Z,4.07
2022-07-30T02:07:46.272Z,4.15
2022-07-30T02:10:06.581Z,3.95
2022-07-30T02:12:39.899Z,4.50
2022-07-30T02:14:47.554Z,4.03
2022-07-30T02:16:51.562Z,4.38
2022-07-30T02:19:01.137Z,4.60
2022-07-30T02:21:10.160Z,4.00
2022-07-30T02:23:15.693Z,4.55
2022-07-30T02:25:21.835Z,4.07
2022-07-30T02:27:28.793Z,4.55
2022-07-30T02:29:33.883Z,4.38
2022-07-30T02:31:36.454Z,4.68
2022-07-30T02:33:41.194Z,4.70
2022-07-30T02:35:52.147Z,4.15
2022-07-30T02:37:54.738Z,4.47
2022-07-30T02:39:57.105Z,4.03
2022-07-30T02:41:59.395Z,4.32
2022-07-30T02:44:02.069Z,4.07
2022-07-30T02:46:04.666Z,4.40
2022-07-30T02:48:08.118Z,4.53
2022-07-30T02:52:13.697Z,3.80
2022-07-30T02:54:16.512Z,3.90
2022-07-30T02:56:20.291Z,4.13
2022-07-30T02:58:23.725Z,4.47
2022-07-30T03:00:26.160Z,4.47
2022-07-30T03:02:29.370Z,3.90
2022-07-30T03:04:32.116Z,4.20
2022-07-30T03:06:33.786Z,4.07
2022-07-30T03:08:36.201Z,4.57
2022-07-30T03:10:38.786Z,4.43
2022-07-30T03:12:42.500Z,4.47
2022-07-30T03:14:44.163Z,5.22
2022-07-30T03:16:55.944Z,4.20
2022-07-30T03:18:59.431Z,4.30
2022-07-30T03:23:03.273Z,4.35
2022-07-30T03:25:05.802Z,4.38
2022-07-30T03:27:08.349Z,4.45
2022-07-30T03:29:10.861Z,4.83
2022-07-30T03:31:14.946Z,4.90
2022-07-30T03:33:16.981Z,4.53
2022-07-30T03:35:20.386Z,4.70
2022-07-30T03:37:22.254Z,4.55
2022-07-30T03:39:24.931Z,4.65
2022-07-30T03:41:26.782Z,4.80
2022-07-30T03:43:32.323Z,4.75
2022-07-30T03:45:37.126Z,5.07
2022-07-30T03:47:41.632Z,4.43
2022-07-30T03:49:43.425Z,4.95
2022-07-30T03:51:46.448Z,4.15
2022-07-30T03:53:48.394Z,5.07
2022-07-30T03:55:51.330Z,4.90
2022-07-30T03:57:53.029Z,5.37
2022-07-30T03:59:54.742Z,4.80
2022-07-30T04:02:06.022Z,5.00
2022-07-30T04:04:10.401Z,5.10
2022-07-30T04:06:12.101Z,5.65
2022-07-30T04:08:13.791Z,5.47
2022-07-30T04:10:16.249Z,5.80
2022-07-30T04:12:17.866Z,6.20
2022-07-30T04:14:19.730Z,5.22
2022-07-30T04:16:41.483Z,6.45
2022-07-30T04:18:48.189Z,6.68
2022-07-30T04:20:51.170Z,6.90
2022-07-30T04:22:53.356Z,6.60
2022-07-30T04:24:56.803Z,6.35
2022-07-30T04:27:02.840Z,7.07
2022-07-30T04:29:07.180Z,6.35
2022-07-30T04:31:08.995Z,5.90
2022-07-30T04:33:10.725Z,5.97
2022-07-30T04:35:12.358Z,5.85
2022-07-30T04:37:34.047Z,6.32
2022-07-30T04:39:35.970Z,6.47
2022-07-30T04:41:48.966Z,6.50
2022-07-30T04:45:53.485Z,6.75
2022-07-30T04:47:55.337Z,7.45
2022-07-30T04:49:57.501Z,6.88
2022-07-30T04:51:59.703Z,6.97
2022-07-30T04:54:02.369Z,6.43
2022-07-30T04:56:04.756Z,6.47
2022-07-30T04:58:07.512Z,6.60
2022-07-30T05:00:09.840Z,7.60
2022-07-30T05:02:12.386Z,6.57
2022-07-30T05:04:14.314Z,6.22
2022-07-30T05:06:17.289Z,6.78
2022-07-30T05:08:19.184Z,6.82
2022-07-30T05:10:20.906Z,6.32
2022-07-30T05:12:32.699Z,6.05
2022-07-30T05:14:34.365Z,6.43
2022-07-30T05:16:36.077Z,6.60
2022-07-30T05:18:38.069Z,6.15
2022-07-30T05:20:40.028Z,6.25
2022-07-30T05:22:42.832Z,6.03
2022-07-30T05:24:52.680Z,6.07
2022-07-30T05:26:54.305Z,6.32
2022-07-30T05:28:56.966Z,6.18
2022-07-30T05:30:58.962Z,6.22
2022-07-30T05:33:01.426Z,6.20
2022-07-30T05:35:10.029Z,5.80
2022-07-30T05:37:12.431Z,6.07
2022-07-30T05:39:14.331Z,5.72
2022-07-30T05:41:30.607Z,5.90
2022-07-30T05:43:34.149Z,6.40
2022-07-30T05:45:36.041Z,5.63
2022-07-30T05:47:37.807Z,6.43
2022-07-30T05:49:39.475Z,6.43
2022-07-30T05:51:41.955Z,6.03
2022-07-30T05:53:43.901Z,6.93
2022-07-30T05:55:45.650Z,5.78
2022-07-30T05:57:47.269Z,6.45
2022-07-30T05:59:50.454Z,6.00
2022-07-30T06:01:52.176Z,6.53
2022-07-30T06:03:54.804Z,6.38
2022-07-30T06:05:56.618Z,7.10
2022-07-30T06:07:58.497Z,6.15
2022-07-30T06:10:00.488Z,6.03
2022-07-30T06:12:02.419Z,6.28
2022-07-30T06:14:04.106Z,6.20
2022-07-30T06:16:05.847Z,5.85
2022-07-30T06:18:07.633Z,6.60
2022-07-30T06:20:10.470Z,6.40
2022-07-30T06:22:12.117Z,6.03
2022-07-30T06:24:13.787Z,6.28
2022-07-30T06:26:15.526Z,5.68
2022-07-30T06:30:40.878Z,5.97
2022-07-30T06:32:43.739Z,5.75
2022-07-30T06:34:45.672Z,5.50
2022-07-30T06:36:47.304Z,6.25
2022-07-30T06:38:48.989Z,5.90
2022-07-30T06:40:50.683Z,5.50
2022-07-30T06:42:52.429Z,5.20
2022-07-30T06:44:54.069Z,4.38
2022-07-30T06:46:55.888Z,4.93
2022-07-30T06:48:57.574Z,4.55
2022-07-30T06:50:59.460Z,4.55
2022-07-30T06:53:01.122Z,4.38
2022-07-30T06:55:03.133Z,4.97
2022-07-30T06:57:04.856Z,4.45
2022-07-30T06:59:06.632Z,4.53
2022-07-30T07:01:10.843Z,4.45
2022-07-30T07:03:13.229Z,5.07
2022-07-30T07:05:15.205Z,4.78
2022-07-30T07:07:31.465Z,4.35
2022-07-30T07:09:38.562Z,4.70
2022-07-30T07:11:46.493Z,4.70
2022-07-30T07:13:48.214Z,4.55
2022-07-30T07:15:49.952Z,5.07
2022-07-30T07:17:51.562Z,4.40
2022-07-30T07:20:00.774Z,4.70
2022-07-30T07:22:03.953Z,4.95
2022-07-30T07:24:05.877Z,4.85
2022-07-30T07:26:07.549Z,4.97
2022-07-30T07:28:12.369Z,4.75
2022-07-30T07:30:15.096Z,5.05
2022-07-30T07:32:16.888Z,4.68
2022-07-30T07:34:19.273Z,5.18
2022-07-30T07:36:22.260Z,4.70
2022-07-30T07:40:25.806Z,4.85
2022-07-30T07:42:27.462Z,4.80
2022-07-30T07:44:29.138Z,4.90
2022-07-30T07:46:33.388Z,4.70
2022-07-30T07:48:36.107Z,4.53
2022-07-30T07:50:37.960Z,4.28
2022-07-30T07:52:39.629Z,5.00
2022-07-30T07:54:41.474Z,4.55
2022-07-30T07:56:43.673Z,5.13
2022-07-30T07:58:47.429Z,4.47
2022-07-30T08:00:51.313Z,4.05
2022-07-30T08:02:53.251Z,4.05
2022-07-30T08:04:54.941Z,4.18
2022-07-30T08:06:56.590Z,4.40
2022-07-30T08:08:58.269Z,4.97
2022-07-30T08:10:59.959Z,4.45
2022-07-30T08:13:03.995Z,4.93
2022-07-30T08:15:06.556Z,4.63
2022-07-30T08:17:08.796Z,4.30
2022-07-30T08:19:10.768Z,4.53
2022-07-30T08:21:12.454Z,4.50
2022-07-30T08:23:14.147Z,4.28
2022-07-30T08:25:21.817Z,4.35
2022-07-30T08:27:26.413Z,4.53
2022-07-30T08:29:29.877Z,4.78
2022-07-30T08:33:33.324Z,4.10
2022-07-30T08:35:34.960Z,4.50
2022-07-30T08:37:37.536Z,4.90
2022-07-30T08:39:39.246Z,4.47
2022-07-30T08:41:41.922Z,4.43
2022-07-30T08:43:47.358Z,4.75
2022-07-30T08:47:53.052Z,4.30
2022-07-30T08:49:55.906Z,4.45
2022-07-30T08:51:57.714Z,4.65
2022-07-30T08:54:01.090Z,4.50
2022-07-30T08:56:04.492Z,4.70
2022-07-30T08:58:15.441Z,4.93
2022-07-30T09:00:21.260Z,4.63
2022-07-30T09:02:27.370Z,5.15
2022-07-30T09:04:29.723Z,4.63
2022-07-30T09:06:31.381Z,5.30
2022-07-30T09:08:34.037Z,4.60
2022-07-30T09:10:35.754Z,4.53
2022-07-30T09:12:41.864Z,4.15
2022-07-30T09:15:01.725Z,4.38
2022-07-30T09:17:03.745Z,4.47
2022-07-30T09:19:13.379Z,4.00
2022-07-30T09:21:16.484Z,4.05
2022-07-30T09:23:18.118Z,4.75
2022-07-30T09:25:44.133Z,4.18
2022-07-30T09:27:48.507Z,4.82
2022-07-30T09:29:58.442Z,4.38
2022-07-30T09:32:04.437Z,4.15
2022-07-30T09:34:23.891Z,4.45
2022-07-30T09:36:31.740Z,4.20
2022-07-30T09:38:47.906Z,4.13
2022-07-30T09:40:57.669Z,4.70
2022-07-30T09:43:27.878Z,4.50
2022-07-30T09:45:34.867Z,3.90
2022-07-30T09:47:45.066Z,4.20
2022-07-30T09:49:47.421Z,4.40
2022-07-30T09:51:56.596Z,3.97
2022-07-30T09:54:01.714Z,4.47
2022-07-30T09:56:24.674Z,4.70
2022-07-30T09:58:39.798Z,4.63
2022-07-30T10:00:47.329Z,4.15
2022-07-30T10:02:50.512Z,4.40
2022-07-30T10:04:52.394Z,4.93
2022-07-30T10:06:54.925Z,3.97
2022-07-30T10:08:57.249Z,4.55
2022-07-30T10:10:59.966Z,4.35
2022-07-30T10:13:10.759Z,4.78
2022-07-30T10:15:20.226Z,5.13
2022-07-30T10:17:22.495Z,4.38
2022-07-30T10:19:40.417Z,4.97
2022-07-30T10:21:44.454Z,4.72
2022-07-30T10:23:46.527Z,4.90
2022-07-30T10:25:55.790Z,4.53
2022-07-30T10:27:57.956Z,4.50
2022-07-30T10:30:03.495Z,4.63
2022-07-30T10:32:06.328Z,5.43
2022-07-30T10:34:13.797Z,5.80
2022-07-30T10:36:15.606Z,5.47
2022-07-30T10:38:21.741Z,5.03
2022-07-30T10:40:39.419Z,4.70
2022-07-30T10:43:17.567Z,4.80
2022-07-30T10:45:24.057Z,4.35
2022-07-30T10:47:33.566Z,4.32
2022-07-30T10:49:41.144Z,5.27
2022-07-30T10:51:49.955Z,5.40
2022-07-30T10:53:51.588Z,5.07
2022-07-30T10:56:10.905Z,5.63
2022-07-30T10:58:14.254Z,4.85
2022-07-30T11:00:17.947Z,5.35
2022-07-30T11:02:21.223Z,5.67
2022-07-30T11:04:29.719Z,7.40
2022-07-30T11:06:31.536Z,5.60
2022-07-30T11:08:43.293Z,5.22
2022-07-30T11:10:45.537Z,5.60
2022-07-30T11:12:53.031Z,5.45
2022-07-30T11:15:07.233Z,5.78
2022-07-30T11:17:20.466Z,4.70
2022-07-30T11:19:55.473Z,5.45
2022-07-30T11:21:49.525Z,5.05
2022-07-30T11:23:56.639Z,5.45
2022-07-30T11:25:58.570Z,5.00
2022-07-30T11:28:01.446Z,5.38
2022-07-30T11:30:29.964Z,4.82
2022-07-30T11:32:34.140Z,5.20
2022-07-30T11:36:37.762Z,5.05
2022-07-30T11:39:05.151Z,5.28
2022-07-30T11:41:09.695Z,5.35
2022-07-30T11:43:36.998Z,4.97
2022-07-30T11:45:39.368Z,5.75
2022-07-30T11:47:43.642Z,5.47
2022-07-30T11:49:48.176Z,5.88
2022-07-30T11:51:50.940Z,5.22
2022-07-30T11:54:03.723Z,5.97
2022-07-30T11:56:05.884Z,5.28
2022-07-30T11:58:09.633Z,6.18
2022-07-30T12:00:11.681Z,5.78
2022-07-30T12:02:13.305Z,5.20
2022-07-30T12:04:15.015Z,5.07
2022-07-30T12:06:18.268Z,5.40
2022-07-30T12:08:35.429Z,5.43
2022-07-30T12:10:39.639Z,5.50
2022-07-30T12:12:41.400Z,5.60
2022-07-30T12:14:42.990Z,5.65
2022-07-30T12:16:53.298Z,6.25
2022-07-30T12:18:55.489Z,6.15
2022-07-30T12:21:02.027Z,5.68
2022-07-30T12:23:09.789Z,5.80
2022-07-30T12:25:12.282Z,6.20
2022-07-30T12:27:14.045Z,6.18
2022-07-30T12:29:15.802Z,6.10
2022-07-30T12:31:18.349Z,5.68
2022-07-30T12:33:20.825Z,5.57
2022-07-30T12:35:22.557Z,6.00
2022-07-30T12:37:25.117Z,5.55
2022-07-30T12:39:27.439Z,5.90
2022-07-30T12:41:46.608Z,5.72
2022-07-30T12:43:49.769Z,5.40
2022-07-30T12:45:58.512Z,5.90
2022-07-30T12:48:00.329Z,6.47
2022-07-30T12:50:16.648Z,5.68
2022-07-30T12:52:29.330Z,5.95
2022-07-30T12:54:32.757Z,5.53
2022-07-30T12:56:34.885Z,6.07
2022-07-30T12:58:37.797Z,6.27
2022-07-30T13:00:52.300Z,5.75
2022-07-30T13:02:54.726Z,5.80
2022-07-30T13:05:10.973Z,6.50
2022-07-30T13:07:13.506Z,6.13
2022-07-30T13:09:20.343Z,6.05
2022-07-30T13:11:48.404Z,6.38
2022-07-30T13:13:51.612Z,6.00
2022-07-30T13:16:04.494Z,5.47
2022-07-30T13:18:06.146Z,6.03
2022-07-30T13:20:08.644Z,5.85
2022-07-30T13:22:10.382Z,5.80
2022-07-30T13:24:17.820Z,5.53
2022-07-30T13:26:20.113Z,6.57
2022-07-30T13:28:21.876Z,6.63
2022-07-30T13:30:23.547Z,6.50
2022-07-30T13:32:25.152Z,6.90
2022-07-30T13:34:26.865Z,6.63
2022-07-30T13:36:28.566Z,6.60
2022-07-30T13:38:30.258Z,6.68
2022-07-30T13:40:33.063Z,6.43
2022-07-30T13:42:34.989Z,6.35
2022-07-30T13:44:36.625Z,6.32
2022-07-30T13:46:41.049Z,6.25
2022-07-30T13:48:43.088Z,6.40
2022-07-30T13:50:44.880Z,5.88
2022-07-30T13:52:47.346Z,6.40
2022-07-30T13:54:51.344Z,5.85
2022-07-30T13:56:53.532Z,6.10
2022-07-30T13:58:55.275Z,6.27
2022-07-30T14:00:58.004Z,5.68
2022-07-30T14:03:01.173Z,6.13
2022-07-30T14:05:08.899Z,6.18
2022-07-30T14:07:10.522Z,5.70
2022-07-30T14:09:12.371Z,5.70
2022-07-30T14:11:14.555Z,6.20
2022-07-30T14:13:21.325Z,6.03
2022-07-30T14:15:24.458Z,5.60
2022-07-30T14:17:26.129Z,6.45
2022-07-30T14:19:27.825Z,6.50
2022-07-30T14:21:29.478Z,5.65
2022-07-30T14:23:31.284Z,5.57
2022-07-30T14:25:32.980Z,5.50
2022-07-30T14:27:34.715Z,5.88
2022-07-30T14:29:36.306Z,5.85
2022-07-30T14:31:38.068Z,6.32
2022-07-30T14:33:39.749Z,5.35
2022-07-30T14:35:41.378Z,5.72
2022-07-30T14:37:43.354Z,5.20
2022-07-30T14:39:45.072Z,5.57
2022-07-30T14:41:46.706Z,5.95
2022-07-30T14:43:48.335Z,5.25
2022-07-30T14:45:51.084Z,5.47
2022-07-30T14:47:52.775Z,5.53
2022-07-30T14:49:54.441Z,5.32
2022-07-30T14:51:56.171Z,6.30
2022-07-30T14:53:57.918Z,5.25
2022-07-30T14:55:59.624Z,5.80
2022-07-30T14:58:01.257Z,5.68
2022-07-30T15:00:04.843Z,5.65
2022-07-30T15:02:10.489Z,5.90
2022-07-30T15:04:12.677Z,6.82
2022-07-30T15:06:15.559Z,7.10
2022-07-30T15:08:17.318Z,6.57
2022-07-30T15:10:19.167Z,8.02
2022-07-30T15:12:26.546Z,6.60
2022-07-30T15:14:29.150Z,6.78
2022-07-30T15:16:30.944Z,7.13
2022-07-30T15:18:33.214Z,6.72
2022-07-30T15:20:34.852Z,7.57
2022-07-30T15:22:36.721Z,8.55
2022-07-30T15:24:38.393Z,7.78
2022-07-30T15:26:40.027Z,7.65
2022-07-30T15:28:42.146Z,7.50
2022-07-30T15:30:43.794Z,7.82
2022-07-30T15:32:45.843Z,7.32
2022-07-30T15:34:47.461Z,7.22
2022-07-30T15:36:49.098Z,6.65
2022-07-30T15:38:51.002Z,6.95
2022-07-30T15:40:53.241Z,6.70
2022-07-30T15:42:54.918Z,6.93
2022-07-30T15:45:15.863Z,6.10
2022-07-30T15:47:18.131Z,5.65
2022-07-30T15:49:19.945Z,5.43
2022-07-30T15:51:21.698Z,5.88
2022-07-30T15:53:23.645Z,5.15
2022-07-30T15:55:25.356Z,5.72
2022-07-30T15:57:27.025Z,5.57
2022-07-30T15:59:29.210Z,5.88
2022-07-30T16:01:30.912Z,5.95
2022-07-30T16:03:32.611Z,6.57
2022-07-30T16:05:51.702Z,6.43
2022-07-30T16:07:54.490Z,5.97
2022-07-30T16:09:56.182Z,6.43
2022-07-30T16:11:58.599Z,6.40
2022-07-30T16:14:00.582Z,7.18
2022-07-30T16:16:02.255Z,6.70
2022-07-30T16:18:04.583Z,6.50
2022-07-30T16:20:06.788Z,6.50
2022-07-30T16:22:08.436Z,6.80
2022-07-30T16:24:10.132Z,7.10
2022-07-30T16:26:12.062Z,7.15
2022-07-30T16:28:13.894Z,6.90
2022-07-30T16:30:15.602Z,6.82
2022-07-30T16:32:17.349Z,7.45
2022-07-30T16:34:22.912Z,7.03
2022-07-30T16:36:28.297Z,7.40
2022-07-30T16:38:30.067Z,6.93
2022-07-30T16:40:31.895Z,7.10
2022-07-30T16:42:33.998Z,6.95
2022-07-30T16:44:35.714Z,6.82
2022-07-30T16:46:38.768Z,7.40
2022-07-30T16:48:40.484Z,6.93
2022-07-30T16:50:42.518Z,7.38
2022-07-30T16:52:44.162Z,6.50
2022-07-30T16:54:45.914Z,7.00
2022-07-30T16:56:47.641Z,6.28
2022-07-30T16:58:49.290Z,7.00
2022-07-30T17:00:50.963Z,6.95
2022-07-30T17:02:52.727Z,7.18
2022-07-30T17:04:54.433Z,7.65
2022-07-30T17:06:56.094Z,7.38
2022-07-30T17:08:57.753Z,7.50
2022-07-30T17:10:59.442Z,6.95
2022-07-30T17:13:01.157Z,7.38
2022-07-30T17:15:04.758Z,7.85
2022-07-30T17:17:08.685Z,7.45
2022-07-30T17:19:13.834Z,8.00
2022-07-30T17:21:15.518Z,7.63
2022-07-30T17:23:17.311Z,8.25
2022-07-30T17:25:18.945Z,7.35
2022-07-30T17:27:20.781Z,7.30
2022-07-30T17:29:22.449Z,6.35
2022-07-30T17:31:24.154Z,7.38
2022-07-30T17:33:44.435Z,7.70
2022-07-30T17:35:46.073Z,7.88
2022-07-30T17:37:47.856Z,5.95
2022-07-30T17:40:27.225Z,6.70
2022-07-30T17:42:12.010Z,6.40
2022-07-30T17:44:14.055Z,6.72
2022-07-30T17:46:15.961Z,6.13
2022-07-30T17:48:18.780Z,5.72
2022-07-30T17:50:20.472Z,6.18
2022-07-30T17:52:26.490Z,6.43
2022-07-30T17:54:28.810Z,5.85
2022-07-30T17:56:30.614Z,6.20
2022-07-30T17:58:32.314Z,7.28
2022-07-30T18:00:35.383Z,7.05
2022-07-30T18:02:37.509Z,7.57
2022-07-30T18:04:39.259Z,6.82
2022-07-30T18:06:40.917Z,7.13
2022-07-30T18:08:42.540Z,6.53
2022-07-30T18:10:44.619Z,6.82
2022-07-30T18:12:48.951Z,9.38
2022-07-30T18:14:52.062Z,6.97
2022-07-30T18:16:54.480Z,6.40
2022-07-30T18:18:56.136Z,5.97
2022-07-30T18:20:57.736Z,6.22
2022-07-30T18:23:00.079Z,6.43
2022-07-30T18:25:02.172Z,7.60
2022-07-30T18:27:04.039Z,7.32
2022-07-30T18:29:08.827Z,7.53
2022-07-30T18:31:12.599Z,8.75
2022-07-30T18:33:15.316Z,9.15
2022-07-30T18:35:17.211Z,8.65
2022-07-30T18:37:18.923Z,8.88
2022-07-30T18:39:20.783Z,8.93
2022-07-30T18:41:23.692Z,8.80
2022-07-30T18:43:26.819Z,8.95
2022-07-30T18:45:28.672Z,9.38
2022-07-30T18:47:30.351Z,8.57
2022-07-30T18:49:37.193Z,9.10
2022-07-30T18:51:39.493Z,10.25
2022-07-30T18:53:42.423Z,9.80
2022-07-30T18:55:44.645Z,11.38
2022-07-30T18:57:46.309Z,11.07
2022-07-30T18:59:53.981Z,10.43
2022-07-30T19:01:55.610Z,10.02
2022-07-30T19:03:57.267Z,10.05
2022-07-30T19:05:58.902Z,11.63
2022-07-30T19:08:00.617Z,10.70
2022-07-30T19:10:02.355Z,10.18
2022-07-30T19:12:05.004Z,10.57
2022-07-30T19:14:07.082Z,10.65
2022-07-30T19:16:09.933Z,10.98
2022-07-30T19:18:12.046Z,10.48
2022-07-30T19:20:13.735Z,10.75
2022-07-30T19:22:15.762Z,9.85
2022-07-30T19:24:17.812Z,10.52
2022-07-30T19:26:19.538Z,10.70
2022-07-30T19:28:21.336Z,10.45
2022-07-30T19:30:22.990Z,11.05
2022-07-30T19:32:24.869Z,10.27
2022-07-30T19:34:26.496Z,11.15
2022-07-30T19:36:29.471Z,11.15
2022-07-30T19:38:31.124Z,10.90
2022-07-30T19:40:33.214Z,11.23
2022-07-30T19:42:34.891Z,10.77
2022-07-30T19:44:40.466Z,11.23
2022-07-30T19:46:43.215Z,10.98
2022-07-30T19:48:45.155Z,11.02
2022-07-30T19:50:48.385Z,11.25
2022-07-30T19:52:51.828Z,11.25
2022-07-30T19:54:53.466Z,10.98
2022-07-30T19:56:55.084Z,11.60
2022-07-30T19:58:56.733Z,12.55
2022-07-30T20:00:58.623Z,12.20
2022-07-30T20:03:00.333Z,11.38
2022-07-30T20:05:06.153Z,11.98
2022-07-30T20:07:12.733Z,11.10
2022-07-30T20:09:16.308Z,12.00
2022-07-30T20:11:35.151Z,11.05
2022-07-30T20:13:44.437Z,11.63
2022-07-30T20:15:49.693Z,11.70
2022-07-30T20:17:55.265Z,11.40
2022-07-30T20:19:59.385Z,11.20
2022-07-30T20:22:01.277Z,11.10
2022-07-30T20:24:03.067Z,11.50
2022-07-30T20:26:12.631Z,11.43
2022-07-30T20:28:14.517Z,10.77
2022-07-30T20:30:25.395Z,12.18
2022-07-30T20:32:27.350Z,10.48
2022-07-30T20:34:30.814Z,10.82
2022-07-30T20:36:35.042Z,10.95
2022-07-30T20:38:44.399Z,10.32
2022-07-30T20:40:47.468Z,10.60
2022-07-30T20:42:49.144Z,10.75
2022-07-30T20:44:53.417Z,8.88
2022-07-30T20:46:55.185Z,8.27
2022-07-30T20:49:01.456Z,7.97
2022-07-30T20:51:06.313Z,8.00
2022-07-30T20:53:11.230Z,7.90
2022-07-30T20:55:19.286Z,7.78
2022-07-30T20:57:44.573Z,7.23
2022-07-30T20:59:45.547Z,8.00
2022-07-30T21:01:47.584Z,7.95
2022-07-30T21:03:49.217Z,7.22
2022-07-30T21:05:51.265Z,6.60
2022-07-30T21:07:54.706Z,6.13
2022-07-30T21:09:57.224Z,5.65
2022-07-30T21:12:00.109Z,6.22
2022-07-30T21:14:01.880Z,6.13
2022-07-30T21:16:04.077Z,6.43
2022-07-30T21:18:17.895Z,6.30
2022-07-30T21:20:27.746Z,6.28
2022-07-30T21:22:29.859Z,6.70
2022-07-30T21:24:31.529Z,7.30
2022-07-30T21:26:33.822Z,6.80
2022-07-30T21:28:36.288Z,6.82
2022-07-30T21:30:38.101Z,8.13
2022-07-30T21:32:40.562Z,8.98
2022-07-30T21:34:42.680Z,9.60
2022-07-30T21:36:44.522Z,9.70
2022-07-30T21:38:46.209Z,9.65
2022-07-30T21:40:48.753Z,10.32
2022-07-30T21:42:51.762Z,9.68
2022-07-30T21:44:54.513Z,10.40
2022-07-30T21:46:56.227Z,10.90
2022-07-30T21:48:59.470Z,10.30
2022-07-30T21:51:01.289Z,10.45
2022-07-30T21:53:02.993Z,10.60
2022-07-30T21:55:05.135Z,10.00
2022-07-30T21:57:06.975Z,11.23
2022-07-30T21:59:08.820Z,11.07
2022-07-30T22:01:16.693Z,10.90
2022-07-30T22:04:05.338Z,11.55
2022-07-30T22:05:42.374Z,13.00
2022-07-30T22:07:44.023Z,14.88
2022-07-30T22:09:45.700Z,14.45
2022-07-30T22:11:47.810Z,15.20
2022-07-30T22:13:51.278Z,16.45
2022-07-30T22:15:55.390Z,15.77
2022-07-30T22:17:58.581Z,16.10
2022-07-30T22:20:02.358Z,15.98
2022-07-30T22:22:26.060Z,16.90
2022-07-30T22:24:28.878Z,17.58
2022-07-30T22:26:32.418Z,17.60
2022-07-30T22:28:34.084Z,16.88
2022-07-30T22:30:35.808Z,17.08
2022-07-30T22:32:38.171Z,18.00
2022-07-30T22:34:40.521Z,16.63
2022-07-30T22:36:42.410Z,18.10
2022-07-30T22:38:58.731Z,17.20
2022-07-30T22:41:01.619Z,17.75
2022-07-30T22:43:09.382Z,18.10
2022-07-30T22:45:14.223Z,17.25
2022-07-30T22:47:21.005Z,16.77
2022-07-30T22:49:51.965Z,16.60
2022-07-30T22:52:03.710Z,16.60
2022-07-30T22:54:13.352Z,16.38
2022-07-30T22:56:15.775Z,15.70
2022-07-30T22:58:18.705Z,16.40
2022-07-30T23:00:27.676Z,16.10
2022-07-30T23:02:30.240Z,15.77
2022-07-30T23:04:31.920Z,15.35
2022-07-30T23:06:34.990Z,15.93
2022-07-30T23:08:36.672Z,15.32
2022-07-30T23:10:38.348Z,15.30
2022-07-30T23:12:42.109Z,15.15
2022-07-30T23:14:44.037Z,14.57
2022-07-30T23:16:50.270Z,15.80
2022-07-30T23:18:52.844Z,15.65
2022-07-30T23:20:59.893Z,15.57
2022-07-30T23:23:03.082Z,16.33
2022-07-30T23:25:06.428Z,16.47
2022-07-30T23:27:08.160Z,16.42
2022-07-30T23:29:13.916Z,17.10
2022-07-30T23:31:17.602Z,16.58
2022-07-30T23:33:19.386Z,16.60
2022-07-30T23:35:21.219Z,16.80
2022-07-30T23:37:22.930Z,17.58
2022-07-30T23:39:24.605Z,17.63
2022-07-30T23:41:30.691Z,17.33
2022-07-30T23:43:35.982Z,17.52
2022-07-30T23:45:37.687Z,17.63
2022-07-30T23:47:56.563Z,16.65
2022-07-30T23:50:01.586Z,17.50
2022-07-30T23:52:03.568Z,17.27
2022-07-30T23:54:06.466Z,17.65
2022-07-30T23:56:17.056Z,16.67
2022-07-30T23:58:18.801Z,17.08
